Terminal Aerodrome Forecast
Issued by NWS New Orleans/Baton Rouge, LA

Home | Current Version | Previous Version | Text Only | Print | Product List | Glossary On
Versions: 1 2 3 4 5 6 7 8 9 10 11 12 13 14 15 16 17 18 19 20 21 22 23 24
000
FTUS44 KLIX 280532
TAFBTR
TAF
KBTR 280532Z 2806/2906 02005KT P6SM OVC005
     FM281500 15007KT P6SM SCT005 BKN050
     FM281800 32010KT P6SM BKN025
     FM290100 33012G18KT P6SM BKN020=

USA.gov is the U.S. government's official web portal to all federal, state and local government web resources and services.